الصفحة الرئيسية
METAR-TAF:

METAR-TAF

مطار :

مطار دبي الدولي

إمارة دبي, الإمارات العربية المتحدة

دائرة عرض: 25-15-10N, خط طول: 055-21-52E, ارتفاع: 8 متر

مراقبة الطقس الحالي

تاريخ ووقت الإصدار 7 دقيقة قبل الساعة 15:00UTC
ريح 5 عقدة من الغرب/الجنوب الغربي, الاتجاه يتراوح بين الجنوب/الجنوب الغربي و الغرب
درجة الحرارة 37°درجة مئوية
الرطوبة 54%
ضغط 995 hPa
الرؤية 10 كم أو أكثر
الغيوم لا تقل 1500 م ولا وجود لمزنة ركامية السحاب الأسود

METAR: OMDB 201500Z 25005KT 210V270 CAVOK 37/26 Q0995 NOSIG

زمن: 19:07 (15:07 UTC)

توقعات

تاريخ ووقت الإصدار 4ساعات و 7 دقيقة قبل الساعة 11:00UTC
التوقعات صالحة من20 الساعة 12 UTC إلى 21 الساعة 18 UTC
ريح 12 عقدة من الغرب/الشمال الغربي
الرؤية: 8000 متر
أصبح
من 20 الساعة 15 UTC إلى 20 الساعة 17 UTC
ريح 2 عقدةمن اتجاهات متغيرة
أصبح
من 21 الساعة 07 UTC إلى 21 الساعة 09 UTC
ريح 14 عقدة من الشمال الغربي
أصبح
من 21 الساعة 16 UTC إلى 21 الساعة 18 UTC
ريح 2 عقدةمن اتجاهات متغيرة

TAF: OMDB 201100Z 2012/2118 29012KT 8000 NSC BECMG 2015/2017 VRB02KT BECMG 2107/2109 32014KT BECMG 2116/2118 VRB02KT

أرصاد الطقس والتوقعات من أكثر من 4000 مطار (تقارير الطقس للمطار METAR والتنبؤ بالطقس بالمطارTAF).

المحطات المتاحة هي النقط الصفراء والحمراء على الخريطة.

حرك المؤشر فوق النقطة لمعرفة اسم المحطة.

ثم انقر لمعرفة أرصاد وتوقعات الطقس.

لتغيير الخارطة: اضغط على الأزرار الخضراء مع رمز الصليب الأسود للتكبير. على الزر الأخضر مع شرطة للتصغير، أو على الأسهم الخضراء للخرائط المجاورة.


METAR-TAF: